Big Wells, TX (78830)

10:14 AM CDT on July 30, 2014 (GMT -0500)
Cotulla-La Salle County (KCOT) Elev 476 ft | 28.46 °N, 99.22 °W | Change Station

Current weather conditions updated 21 minutes ago

Clear
Clear
83 °F
Feels Like 86 °F
N
8
Wind Variable Wind from South

Today is forecast to be Warmer than yesterday.

Today
High -- | Low -- °F
--% Chance of Precip.
Yesterday
High -- | Low -- °F
Precip. -- in
6:58 AM 8:30 PM
Waxing Crescent, 12% visible
Pressure 30.00 in
Visibility 10.0 miles
Clouds Clear
Heat Index 86 °F
Dew Point 68 °F
Humidity 60%
Rainfall 0.00 in
Snow Depth Not available.
UV 4 out of 12
Pollen 7.60 out of 12
Air Quality Not available.
Flu Activity Not available.
METAR KCOT 301453Z AUTO 18007KT 150V210 10SM CLR 28/20 A3002 RMK AO2 SLP157 T02830200 53005 $

More Conditions Fewer Conditions

Pressure 30.00 in
Visibility 10.0 miles
Clouds Clear
Heat Index 86 °F
Dew Point 68 °F
Humidity 60%
Rainfall 0.00 in
Snow Depth Not available.
UV 4 out of 12
Pollen 7.60 out of 12
Air Quality Not available.
Flu Activity Not available.
METAR KCOT 301453Z AUTO 18007KT 150V210 10SM CLR 28/20 A3002 RMK AO2 SLP157 T02830200 53005 $

More Conditions Fewer Conditions

10-Day Weather Forecast

Almanac

Astronomy

Jul. 30, 2014 Rise Set
Actual Time 6:58 AM CDT 8:30 PM CDT
Civil Twilight 6:33 AM CDT 8:55 PM CDT
Nautical Twilight 6:02 AM CDT 9:26 PM CDT
Astronomical Twilight 5:30 AM CDT 9:58 PM CDT
Moon 10:10 AM CDT 10:37 PM CDT
Length of Visible Light 14h 22m
Length of Day
13h 31m
Tomorrow will be 1m 13s shorter.
Waxing Crescent, 12% of the Moon is Illuminated
Today
Waxing Crescent
Aug 3
First Quarter
Aug 10
Full
Aug 17
Last Quarter
Aug 25
New

Today's Extremes

State Highs State Lows

Community

WunderPhotos

Upload Photos

1,739,107 photos uploaded!

WunderBlogs® & News

By Dr. Jeff Masters
Director of Meteorology, Weather Underground
By Kari Strenfel
Meteorologist, Weather Underground
By Christopher C. Burt
Weather Historian, Weather Underground
July 30, 2014
July 30, 2014
July 30, 2014

Nearby

Snow Depth

Station Depth Elevation
No new snow has been reported.

Earthquake Activity

City Distance Mag. Time & Date
No recent earthquake activity has been reported nearby.
Minimum magnitude displayed is 2.5.

Coastal Water Temperatures

Place Temperature
No Stations Reporting

Nearby Weather Stations

Station Location Temp. Heat Index Dew Point Humidity Wind Precip. Elev Updated Type
MesoWest GARNDL , Cotulla, TX 73 °F 71 °F - - North  at  - 0.00 in / hr 457 ft 7:30 AM CDT MADIS
Leona Farms, Batesville, TX 85.1 °F 90 °F 70 °F 61% South  at  0.0 mph 0.00 in / hr 689 ft 10:14 AM CDT Normal

Show More Stations Show Fewer Stations